createdAt,value
2022-11-05T00:02:59.755Z,98198.84
2022-11-05T00:08:25.645Z,98193.46
2022-11-05T00:13:51.434Z,98198.95
2022-11-05T00:19:07.646Z,98195.76
2022-11-05T00:24:33.369Z,98195.94
2022-11-05T00:29:40.691Z,98199.46
2022-11-05T00:34:47.997Z,98208.38
2022-11-05T00:39:55.298Z,98211.72
2022-11-05T00:45:02.553Z,98198.39
2022-11-05T00:50:11.786Z,98191.20
2022-11-05T00:55:19.084Z,98186.64
2022-11-05T01:00:28.682Z,98188.20
2022-11-05T01:05:39.658Z,98198.56
2022-11-05T01:10:48.744Z,98207.40
2022-11-05T01:15:57.163Z,98210.25
2022-11-05T01:21:13.310Z,98206.95
2022-11-05T01:26:20.307Z,98215.62
2022-11-05T01:31:29.099Z,98218.20
2022-11-05T01:36:36.151Z,98230.06
2022-11-05T01:41:43.518Z,98228.35
2022-11-05T01:46:50.839Z,98232.14
2022-11-05T01:51:59.887Z,98236.33
2022-11-05T01:57:11.351Z,98243.06
2022-11-05T02:02:19.015Z,98253.84
2022-11-05T02:07:29.741Z,98254.27
2022-11-05T02:12:38.920Z,98257.57
2022-11-05T02:17:53.347Z,98264.93
2022-11-05T02:23:36.161Z,98264.77
2022-11-05T02:29:06.629Z,98279.38
2022-11-05T02:34:22.580Z,98284.63
2022-11-05T02:39:45.107Z,98285.90
2022-11-05T02:45:00.215Z,98295.36
2022-11-05T02:50:15.710Z,98310.35
2022-11-05T02:55:31.170Z,98325.95
2022-11-05T03:00:49.747Z,98340.84
2022-11-05T03:06:16.194Z,98354.05
2022-11-05T03:11:27.412Z,98366.80
2022-11-05T03:16:40.761Z,98373.73
2022-11-05T03:21:53.498Z,98387.25
2022-11-05T03:27:05.392Z,98392.36
2022-11-05T03:32:15.941Z,98396.92
2022-11-05T03:37:27.113Z,98398.48
2022-11-05T03:42:38.433Z,98403.69
2022-11-05T03:47:48.813Z,98417.08
2022-11-05T03:53:00.419Z,98420.83
2022-11-05T03:58:08.811Z,98428.55
2022-11-05T04:03:15.834Z,98429.14
2022-11-05T04:08:40.493Z,98428.91
2022-11-05T04:13:47.539Z,98437.27
2022-11-05T04:18:54.715Z,98446.88
2022-11-05T04:24:10.603Z,98444.97
2022-11-05T04:29:35.715Z,98444.77
2022-11-05T04:34:42.564Z,98445.41
2022-11-05T04:39:49.618Z,98447.85
2022-11-05T04:44:57.488Z,98456.54
2022-11-05T04:50:05.219Z,98452.63
2022-11-05T04:55:12.969Z,98452.30
2022-11-05T05:00:22.344Z,98459.85
2022-11-05T05:05:30.965Z,98469.40
2022-11-05T05:10:38.141Z,98478.38
2022-11-05T05:15:43.644Z,98484.54
2022-11-05T05:21:08.292Z,98492.92
2022-11-05T05:26:15.548Z,98499.58
2022-11-05T05:31:23.324Z,98503.52
2022-11-05T05:36:30.978Z,98509.40
2022-11-05T05:41:38.490Z,98509.47
2022-11-05T05:46:45.398Z,98512.20
2022-11-05T05:51:52.770Z,98514.73
2022-11-05T05:56:59.772Z,98523.14
2022-11-05T06:02:05.335Z,98543.67
2022-11-05T06:07:12.437Z,98553.02
2022-11-05T06:12:19.326Z,98561.29
2022-11-05T06:17:26.950Z,98562.66
2022-11-05T06:22:34.547Z,98570.07
2022-11-05T06:27:41.948Z,98576.06
2022-11-05T06:32:48.899Z,98584.36
2022-11-05T06:37:59.887Z,98597.65
2022-11-05T06:43:07.019Z,98604.96
2022-11-05T06:48:12.406Z,98611.04
2022-11-05T06:53:19.471Z,98617.52
2022-11-05T06:58:28.155Z,98616.96
2022-11-05T07:03:35.453Z,98623.20
2022-11-05T07:08:42.759Z,98631.27
2022-11-05T07:13:49.697Z,98641.71
2022-11-05T07:18:58.341Z,98647.61
2022-11-05T07:24:06.334Z,98657.36
2022-11-05T07:29:13.430Z,98661.77
2022-11-05T07:34:19.040Z,98664.13
2022-11-05T07:39:26.238Z,98669.70
2022-11-05T07:44:33.620Z,98677.39
2022-11-05T07:49:40.526Z,98680.84
2022-11-05T07:54:47.596Z,98683.31
2022-11-05T07:59:53.102Z,98678.45
2022-11-05T08:05:00.096Z,98679.98
2022-11-05T08:10:05.764Z,98681.33
2022-11-05T08:15:13.693Z,98685.52
2022-11-05T08:20:21.616Z,98682.69
2022-11-05T08:25:29.484Z,98690.32
2022-11-05T08:30:37.813Z,98692.16
2022-11-05T08:35:45.542Z,98702.05
2022-11-05T08:40:59.324Z,98704.29
2022-11-05T08:46:07.034Z,98708.02
2022-11-05T08:51:14.219Z,98716.21
2022-11-05T08:56:21.943Z,98721.45
2022-11-05T09:01:29.099Z,98728.02
2022-11-05T09:06:36.776Z,98728.98
2022-11-05T09:12:10.408Z,98734.43
2022-11-05T09:17:19.734Z,98741.04
2022-11-05T09:22:27.458Z,98745.00
2022-11-05T09:27:34.694Z,98749.16
2022-11-05T09:32:42.294Z,98753.67
2022-11-05T09:37:49.509Z,98762.29
2022-11-05T09:42:57.311Z,98766.48
2022-11-05T09:48:11.889Z,98770.89
2022-11-05T09:53:21.173Z,98771.41
2022-11-05T09:58:38.568Z,98775.42
2022-11-05T10:03:49.554Z,98771.09
2022-11-05T10:09:02.504Z,98780.68
2022-11-05T10:14:19.293Z,98785.01
2022-11-05T10:19:29.910Z,98792.41
2022-11-05T10:24:44.485Z,98788.21
2022-11-05T10:29:53.788Z,98791.09
2022-11-05T10:35:03.685Z,98795.04
2022-11-05T10:40:21.115Z,98794.32
2022-11-05T10:45:32.021Z,98804.72
2022-11-05T10:50:40.066Z,98810.56
2022-11-05T10:55:50.991Z,98819.47
2022-11-05T11:01:12.825Z,98818.51
2022-11-05T11:06:27.547Z,98821.42
2022-11-05T11:11:37.893Z,98826.39
2022-11-05T11:16:46.760Z,98827.05
2022-11-05T11:27:36.571Z,98834.40
2022-11-05T11:32:43.993Z,98836.44
2022-11-05T11:37:54.034Z,98836.99
2022-11-05T11:43:05.703Z,98838.66
2022-11-05T11:48:19.634Z,98840.79
2022-11-05T11:53:42.315Z,98844.86
2022-11-05T11:58:51.787Z,98849.19
2022-11-05T12:04:08.466Z,98848.02
2022-11-05T12:09:24.672Z,98856.52
2022-11-05T12:14:46.249Z,98859.73
2022-11-05T12:20:23.416Z,98861.21
2022-11-05T12:25:38.292Z,98868.98
2022-11-05T12:30:54.175Z,98866.31
2022-11-05T12:36:12.153Z,98868.38
2022-11-05T12:41:28.708Z,98877.45
2022-11-05T12:46:46.237Z,98881.71
2022-11-05T12:52:08.080Z,98882.59
2022-11-05T12:57:18.021Z,98880.80
2022-11-05T13:02:30.755Z,98882.81
2022-11-05T13:07:44.946Z,98886.19
2022-11-05T13:13:00.410Z,98892.56
2022-11-05T13:18:13.429Z,98893.63
2022-11-05T13:23:32.355Z,98900.88
2022-11-05T13:28:48.132Z,98903.10
2022-11-05T13:33:56.630Z,98909.08
2022-11-05T13:39:12.642Z,98911.58
2022-11-05T13:44:39.940Z,98916.49
2022-11-05T13:50:19.715Z,98921.20
2022-11-05T13:55:47.866Z,98927.67
2022-11-05T14:01:08.623Z,98931.40
2022-11-05T14:06:24.907Z,98941.10
2022-11-05T14:11:35.617Z,98944.80
2022-11-05T14:16:53.878Z,98948.88
2022-11-05T14:22:01.655Z,98958.09
2022-11-05T14:27:43.664Z,98969.28
2022-11-05T14:32:53.323Z,98980.86
2022-11-05T14:38:02.417Z,98984.88
2022-11-05T14:43:19.061Z,98988.50
2022-11-05T14:48:40.778Z,98984.33
2022-11-05T14:53:48.583Z,98991.08
2022-11-05T14:59:41.559Z,98996.02
2022-11-05T15:04:49.541Z,99000.86
2022-11-05T15:10:09.018Z,99009.48
2022-11-05T15:15:24.886Z,99010.81
2022-11-05T15:20:40.488Z,99018.67
2022-11-05T15:25:53.774Z,99018.91
2022-11-05T15:31:04.446Z,99028.79
2022-11-05T15:36:24.464Z,99031.81
2022-11-05T15:41:34.843Z,99041.22
2022-11-05T15:46:41.767Z,99047.20
2022-11-05T15:51:47.545Z,99055.86
2022-11-05T15:56:58.064Z,99058.71
2022-11-05T16:02:20.898Z,99063.38
2022-11-05T16:07:29.105Z,99070.66
2022-11-05T16:12:38.553Z,99072.40
2022-11-05T16:17:52.108Z,99077.90
2022-11-05T16:28:05.780Z,99077.91
2022-11-05T16:33:16.551Z,99078.48
2022-11-05T16:38:24.775Z,99090.47
2022-11-05T16:43:32.343Z,99095.98
2022-11-05T16:48:39.581Z,99104.05
2022-11-05T16:53:48.240Z,99110.94
2022-11-05T16:58:55.352Z,99124.02
2022-11-05T17:04:02.537Z,99129.23
2022-11-05T17:09:09.787Z,99132.96
2022-11-05T17:14:17.208Z,99136.23
2022-11-05T17:19:24.425Z,99143.89
2022-11-05T17:24:31.543Z,99153.73
2022-11-05T17:29:39.323Z,99156.83
2022-11-05T17:34:46.902Z,99160.60
2022-11-05T17:39:55.170Z,99170.17
2022-11-05T17:45:02.431Z,99174.98
2022-11-05T17:50:13.051Z,99173.67
2022-11-05T17:55:21.064Z,99176.71
2022-11-05T18:00:28.651Z,99175.36
2022-11-05T18:05:38.398Z,99184.32
2022-11-05T18:10:45.701Z,99183.15
2022-11-05T18:15:54.957Z,99185.70
2022-11-05T18:21:02.236Z,99193.04
2022-11-05T18:26:16.844Z,99201.43
2022-11-05T18:31:26.846Z,99203.84
2022-11-05T18:36:35.060Z,99205.94
2022-11-05T18:41:42.520Z,99207.77
2022-11-05T18:46:59.590Z,99208.65
2022-11-05T18:52:07.829Z,99212.58
2022-11-05T18:57:15.185Z,99220.81
2022-11-05T19:02:22.605Z,99222.91
2022-11-05T19:07:30.000Z,99232.61
2022-11-05T19:12:37.152Z,99237.86
2022-11-05T19:17:42.824Z,99241.04
2022-11-05T19:22:50.862Z,99245.70
2022-11-05T19:27:58.790Z,99253.27
2022-11-05T19:33:06.261Z,99259.24
2022-11-05T19:38:14.008Z,99265.35
2022-11-05T19:43:21.832Z,99270.55
2022-11-05T19:48:28.880Z,99274.45
2022-11-05T19:53:35.192Z,99283.65
2022-11-05T19:58:42.511Z,99290.71
2022-11-05T20:03:50.379Z,99295.89
2022-11-05T20:09:29.595Z,99302.08
2022-11-05T20:14:27.747Z,99306.23
2022-11-05T20:19:35.535Z,99307.21
2022-11-05T20:24:43.105Z,99315.77
2022-11-05T20:29:50.500Z,99326.34
2022-11-05T20:34:58.116Z,99337.96
2022-11-05T20:40:03.751Z,99349.30
2022-11-05T20:45:12.295Z,99361.20
2022-11-05T20:50:19.526Z,99373.67
2022-11-05T20:55:26.839Z,99376.39
2022-11-05T21:00:32.456Z,99377.59
2022-11-05T21:05:39.920Z,99372.04
2022-11-05T21:10:51.279Z,99369.64
2022-11-05T21:16:00.498Z,99370.16
2022-11-05T21:21:10.070Z,99369.48
2022-11-05T21:26:18.723Z,99368.27
2022-11-05T21:31:25.748Z,99369.34
2022-11-05T21:36:33.104Z,99365.70
2022-11-05T21:41:40.296Z,99372.16
2022-11-05T21:46:47.376Z,99372.23
2022-11-05T21:52:12.714Z,99374.53
2022-11-05T21:57:38.544Z,99375.83
2022-11-05T22:02:46.819Z,99381.84
2022-11-05T22:07:54.172Z,99386.02
2022-11-05T22:13:00.033Z,99392.23
2022-11-05T22:18:07.036Z,99391.12
2022-11-05T22:23:12.710Z,99391.34
2022-11-05T22:28:19.792Z,99395.93
2022-11-05T22:33:27.201Z,99396.70
2022-11-05T22:38:32.745Z,99398.22
2022-11-05T22:43:40.543Z,99398.04
2022-11-05T22:48:48.839Z,99396.54
2022-11-05T22:53:56.534Z,99398.85
2022-11-05T22:59:04.574Z,99394.50
2022-11-05T23:04:12.502Z,99401.73
2022-11-05T23:09:39.363Z,99399.62
2022-11-05T23:14:47.118Z,99400.71
2022-11-05T23:20:12.036Z,99397.90
2022-11-05T23:25:22.033Z,99403.75
2022-11-05T23:30:30.265Z,99407.56
2022-11-05T23:35:56.991Z,99407.91
2022-11-05T23:41:22.864Z,99404.98
2022-11-05T23:46:48.602Z,99407.20
2022-11-05T23:51:55.793Z,99402.19
2022-11-05T23:57:03.827Z,99399.33
